CYEV

Inuvik Mike Zubko Airport

Inuvik, Northwest Territories, Canada
METAR CYEV 181300Z 14004KT 15SM FEW100 SCT170 BKN270 12/08 A2983 RMK AC1AC2CI2 SLP107
Observed Flight Rules
Jun-18 @ 13:00 UTC (15 minutes ago) Visual Flight Rules
Wind Visibility Clouds
140° at 4 knots 15 miles
  • Few at 10,000' AGL
  • Scattered at 17,000' AGL
  • Broken at 27,000' AGL
Temperatures Readings
Current 12°C / 54°F
Dewpoint 8°C / 46°F
Humidity 77%
Altimeter 29.83" Hg
Pressure 1010.7 hPa
Elevation 68
METAR CYEV 181300Z 14004KT 15SM FEW100 SCT170 BKN270 12/08 A2983 RMK AC1AC2CI2 SLP107
Observed Flight Rules
Jun-18 @ 13:00 UTC
(15 minutes ago)
VFR
Wind Visibility
140° at 4 knots 15 miles
Clouds
  • Few at 10,000' AGL
  • Scattered at 17,000' AGL
  • Broken at 27,000' AGL
Temperature Dewpoint
12°C / 54°F 8°C / 46°F
Humidity Altimeter Pressure
77% 29.83" Hg 1010.7 hPa